Time;durP1;ratioP1;P1;durP2;ratioP2;P2;SDS_P1;SDS_P2;PMS_P1;PMS_P2;Temp;Humidity;BMP_temperature;BMP_pressure;BME280_temperature;BME280_humidity;BME280_pressure;Samples;Min_cycle;Max_cycle;Signal;HPM_P1;HPM_P2
2023/10/30 00:01:34;;;;;;;2.72;1.10;;;;;;;;;;5064727;28;20029;-85
2023/10/30 00:04:00;;;;;;;0.90;0.90;;;;;;;;;;5068515;28;20028;-86
2023/10/30 00:06:25;;;;;;;0.90;0.90;;;;;;;;;;5061980;28;20048;-85
2023/10/30 00:08:50;;;;;;;0.90;0.90;;;;;;;;;;5047223;28;20274;-85
2023/10/30 00:11:16;;;;;;;1.20;1.10;;;;;;;;;;5049499;28;20012;-86
2023/10/30 00:13:42;;;;;;;1.35;1.20;;;;;;;;;;5069199;28;20036;-86
2023/10/30 00:16:10;;;;;;;0.98;0.98;;;;;;;;;;5070807;28;20111;-85
2023/10/30 00:18:35;;;;;;;1.02;0.93;;;;;;;;;;5065284;28;20027;-85
2023/10/30 00:21:01;;;;;;;2.75;1.25;;;;;;;;;;5068542;28;20025;-86
2023/10/30 00:23:27;;;;;;;1.27;1.10;;;;;;;;;;5065546;28;20053;-86
2023/10/30 00:25:54;;;;;;;1.05;1.05;;;;;;;;;;5070904;28;20013;-87
2023/10/30 00:28:20;;;;;;;1.33;1.23;;;;;;;;;;5073718;28;20025;-86
2023/10/30 00:30:45;;;;;;;1.42;0.98;;;;;;;;;;5068824;28;20104;-85
2023/10/30 00:33:10;;;;;;;1.95;1.27;;;;;;;;;;5071109;28;20032;-86
2023/10/30 00:35:36;;;;;;;3.53;1.58;;;;;;;;;;5072040;28;20028;-86
2023/10/30 00:38:01;;;;;;;1.80;1.33;;;;;;;;;;5066365;28;20491;-86
2023/10/30 00:40:27;;;;;;;1.73;1.30;;;;;;;;;;5066271;28;20039;-86
2023/10/30 00:42:52;;;;;;;1.60;1.42;;;;;;;;;;5071925;28;20024;-86
2023/10/30 00:45:17;;;;;;;2.00;1.30;;;;;;;;;;5065380;28;20028;-85
2023/10/30 00:47:43;;;;;;;3.55;1.75;;;;;;;;;;5078367;28;20390;-86
2023/10/30 00:50:08;;;;;;;1.25;1.23;;;;;;;;;;5075515;28;20051;-86
2023/10/30 00:52:34;;;;;;;1.58;1.27;;;;;;;;;;5066124;28;20024;-86
2023/10/30 00:54:59;;;;;;;1.48;1.38;;;;;;;;;;5057786;28;20077;-86
2023/10/30 00:57:24;;;;;;;1.10;1.10;;;;;;;;;;5065166;28;20029;-85
2023/10/30 00:59:50;;;;;;;1.50;1.40;;;;;;;;;;5064602;28;20542;-86
2023/10/30 01:02:15;;;;;;;1.60;1.50;;;;;;;;;;5066250;28;20027;-87
2023/10/30 01:04:41;;;;;;;4.80;1.30;;;;;;;;;;5057675;28;20120;-87
2023/10/30 01:07:06;;;;;;;1.50;1.40;;;;;;;;;;5063379;28;20029;-86
2023/10/30 01:09:32;;;;;;;3.72;1.60;;;;;;;;;;5050308;28;20025;-87
2023/10/30 01:11:58;;;;;;;3.92;1.50;;;;;;;;;;5071960;28;20084;-86
2023/10/30 01:14:23;;;;;;;1.55;1.45;;;;;;;;;;5065908;28;20025;-86
2023/10/30 01:16:49;;;;;;;1.67;1.52;;;;;;;;;;5088275;28;20080;-86
2023/10/30 01:19:15;;;;;;;1.70;1.60;;;;;;;;;;5068384;28;20087;-87
2023/10/30 01:21:40;;;;;;;1.50;1.40;;;;;;;;;;5069130;28;20082;-87
2023/10/30 01:24:06;;;;;;;1.75;1.55;;;;;;;;;;5064068;28;20090;-86
2023/10/30 01:26:31;;;;;;;3.40;1.80;;;;;;;;;;5063448;28;20028;-86
2023/10/30 01:28:57;;;;;;;1.98;1.77;;;;;;;;;;5067601;28;20016;-87
2023/10/30 01:31:27;;;;;;;2.40;1.77;;;;;;;;;;5062158;28;20028;-86
2023/10/30 01:33:56;;;;;;;2.38;1.58;;;;;;;;;;5066419;28;20028;-87
2023/10/30 01:36:21;;;;;;;3.47;2.22;;;;;;;;;;5063068;28;20028;-86
2023/10/30 01:38:47;;;;;;;1.65;1.55;;;;;;;;;;5056975;28;20025;-86
2023/10/30 01:41:12;;;;;;;2.67;2.13;;;;;;;;;;5058721;28;20103;-87
2023/10/30 01:43:38;;;;;;;2.80;1.65;;;;;;;;;;5059576;28;20059;-86
2023/10/30 01:46:03;;;;;;;2.05;1.80;;;;;;;;;;5059629;28;20500;-85
2023/10/30 01:48:32;;;;;;;3.25;1.98;;;;;;;;;;5059773;28;20031;-86
2023/10/30 01:50:59;;;;;;;1.90;1.65;;;;;;;;;;5060898;28;20066;-86
2023/10/30 01:53:25;;;;;;;2.58;1.83;;;;;;;;;;5068856;28;20048;-86
2023/10/30 01:55:52;;;;;;;1.90;1.80;;;;;;;;;;5065645;28;20021;-86
2023/10/30 01:58:18;;;;;;;1.80;1.70;;;;;;;;;;5065737;28;20016;-86
2023/10/30 02:00:45;;;;;;;2.80;1.98;;;;;;;;;;5072434;28;20032;-87
2023/10/30 02:03:11;;;;;;;2.65;2.05;;;;;;;;;;5060460;28;20024;-87
2023/10/30 02:05:36;;;;;;;2.58;2.08;;;;;;;;;;5049556;28;20025;-86
2023/10/30 02:08:02;;;;;;;2.78;2.00;;;;;;;;;;5069729;28;20021;-86
2023/10/30 02:10:27;;;;;;;2.58;1.85;;;;;;;;;;5065639;28;20076;-87
2023/10/30 02:12:53;;;;;;;4.72;2.60;;;;;;;;;;5063503;28;20041;-87
2023/10/30 02:15:18;;;;;;;2.72;2.03;;;;;;;;;;5068353;28;20111;-86
2023/10/30 02:17:44;;;;;;;2.58;2.22;;;;;;;;;;5073785;28;20112;-87
2023/10/30 02:20:13;;;;;;;2.50;1.80;;;;;;;;;;5066151;28;20031;-87
2023/10/30 02:22:38;;;;;;;3.25;2.20;;;;;;;;;;5061758;28;20067;-87
2023/10/30 02:25:05;;;;;;;4.75;2.40;;;;;;;;;;5066709;28;20049;-86
2023/10/30 02:27:31;;;;;;;2.20;2.00;;;;;;;;;;5058824;28;20025;-87
2023/10/30 02:29:57;;;;;;;2.65;2.15;;;;;;;;;;5065487;28;20032;-87
2023/10/30 02:32:22;;;;;;;4.72;2.17;;;;;;;;;;5064996;28;20109;-86
2023/10/30 02:34:48;;;;;;;3.20;2.25;;;;;;;;;;5071471;28;20031;-87
2023/10/30 02:37:13;;;;;;;1.60;1.50;;;;;;;;;;5048489;28;20025;-86
2023/10/30 02:39:39;;;;;;;1.48;1.38;;;;;;;;;;5067761;28;20348;-87
2023/10/30 02:42:04;;;;;;;1.50;1.40;;;;;;;;;;5059892;28;20039;-86
2023/10/30 02:44:30;;;;;;;2.65;1.50;;;;;;;;;;5068987;28;20028;-87
2023/10/30 02:46:55;;;;;;;6.95;1.48;;;;;;;;;;5071335;28;20024;-86
2023/10/30 02:49:21;;;;;;;2.35;1.67;;;;;;;;;;5044705;28;20024;-86
2023/10/30 02:51:46;;;;;;;1.63;1.40;;;;;;;;;;5062986;28;20115;-87
2023/10/30 02:54:12;;;;;;;2.08;1.48;;;;;;;;;;5066220;28;20043;-87
2023/10/30 02:56:37;;;;;;;1.85;1.55;;;;;;;;;;5066219;28;20029;-86
2023/10/30 02:59:02;;;;;;;1.75;1.60;;;;;;;;;;5050711;28;20069;-86
2023/10/30 03:01:28;;;;;;;2.22;1.80;;;;;;;;;;5055287;28;20048;-86
2023/10/30 03:03:54;;;;;;;1.80;1.70;;;;;;;;;;5076788;28;20092;-87
2023/10/30 03:06:20;;;;;;;2.33;1.67;;;;;;;;;;5077896;28;20044;-87
2023/10/30 03:08:45;;;;;;;1.67;1.58;;;;;;;;;;5075487;28;20068;-86
2023/10/30 03:11:11;;;;;;;2.17;1.65;;;;;;;;;;5066037;28;20021;-85
2023/10/30 03:13:36;;;;;;;1.48;1.33;;;;;;;;;;5072042;28;20024;-86
2023/10/30 03:16:02;;;;;;;1.55;1.45;;;;;;;;;;5066836;28;20082;-86
2023/10/30 03:18:27;;;;;;;1.90;1.63;;;;;;;;;;5051355;28;20040;-86
2023/10/30 03:20:52;;;;;;;2.85;1.67;;;;;;;;;;5074152;28;20025;-86
2023/10/30 03:23:18;;;;;;;2.95;1.95;;;;;;;;;;5074360;28;20095;-86
2023/10/30 03:25:43;;;;;;;2.33;1.90;;;;;;;;;;5065894;28;20021;-86
2023/10/30 03:28:08;;;;;;;3.58;1.83;;;;;;;;;;5069198;28;20021;-86
2023/10/30 03:30:35;;;;;;;1.98;1.70;;;;;;;;;;5069402;28;20057;-86
2023/10/30 03:33:00;;;;;;;3.95;1.80;;;;;;;;;;5072873;28;20020;-86
2023/10/30 03:35:26;;;;;;;1.90;1.77;;;;;;;;;;5065153;28;20040;-87
2023/10/30 03:37:51;;;;;;;1.65;1.40;;;;;;;;;;5066551;28;20025;-86
2023/10/30 03:40:16;;;;;;;2.58;1.58;;;;;;;;;;5068741;28;20017;-86
2023/10/30 03:42:42;;;;;;;1.95;1.55;;;;;;;;;;5070256;28;20025;-87
2023/10/30 03:45:07;;;;;;;2.15;1.73;;;;;;;;;;5058508;28;20029;-86
2023/10/30 03:47:33;;;;;;;1.30;1.20;;;;;;;;;;5071350;28;20398;-87
2023/10/30 03:49:58;;;;;;;1.33;1.13;;;;;;;;;;5067204;28;20056;-86
2023/10/30 03:52:23;;;;;;;3.40;1.30;;;;;;;;;;5060917;28;20023;-86
2023/10/30 03:54:49;;;;;;;1.40;1.30;;;;;;;;;;5066431;28;20021;-85
2023/10/30 03:57:14;;;;;;;1.90;1.55;;;;;;;;;;5061337;28;20029;-86
2023/10/30 03:59:40;;;;;;;2.13;1.50;;;;;;;;;;5062869;28;20029;-85
2023/10/30 04:02:05;;;;;;;1.27;0.90;;;;;;;;;;5054889;28;20051;-86
2023/10/30 04:04:31;;;;;;;1.50;1.40;;;;;;;;;;5057206;28;20079;-86
2023/10/30 04:06:56;;;;;;;1.05;1.05;;;;;;;;;;5062856;28;20064;-85
2023/10/30 04:09:21;;;;;;;2.28;1.23;;;;;;;;;;5049486;28;20064;-85
2023/10/30 04:11:47;;;;;;;1.63;1.38;;;;;;;;;;5060420;28;20528;-88
2023/10/30 04:14:13;;;;;;;1.40;1.30;;;;;;;;;;5067532;28;20062;-88
2023/10/30 04:16:38;;;;;;;1.45;1.17;;;;;;;;;;5057135;28;20082;-88
2023/10/30 04:19:04;;;;;;;1.35;1.25;;;;;;;;;;5065514;28;20024;-88
2023/10/30 04:21:29;;;;;;;2.67;1.20;;;;;;;;;;5065596;28;20026;-87
2023/10/30 04:23:55;;;;;;;1.17;1.08;;;;;;;;;;5069139;28;20532;-87
2023/10/30 04:26:20;;;;;;;3.03;1.35;;;;;;;;;;5048400;28;20120;-86
2023/10/30 04:28:45;;;;;;;1.45;1.35;;;;;;;;;;5071475;28;20029;-86
2023/10/30 04:31:11;;;;;;;1.98;1.27;;;;;;;;;;5087446;28;20080;-87
2023/10/30 04:33:36;;;;;;;2.22;1.23;;;;;;;;;;5067450;28;20044;-87
2023/10/30 04:36:03;;;;;;;1.40;1.30;;;;;;;;;;5049375;28;20100;-88
2023/10/30 04:38:32;;;;;;;2.60;1.48;;;;;;;;;;5052727;28;20024;-88
2023/10/30 04:41:01;;;;;;;2.80;1.10;;;;;;;;;;5073750;28;20032;-88
2023/10/30 04:43:26;;;;;;;1.40;1.20;;;;;;;;;;5065689;28;20081;-88
2023/10/30 04:45:52;;;;;;;1.45;1.33;;;;;;;;;;5064554;28;20560;-88
2023/10/30 04:48:17;;;;;;;1.58;1.15;;;;;;;;;;5069077;28;20031;-87
2023/10/30 04:50:43;;;;;;;1.75;1.38;;;;;;;;;;5052930;28;20020;-87
2023/10/30 04:53:08;;;;;;;1.33;1.15;;;;;;;;;;5041743;28;20024;-87
2023/10/30 04:55:34;;;;;;;1.30;1.20;;;;;;;;;;5071275;28;20020;-88
2023/10/30 04:58:00;;;;;;;1.75;1.30;;;;;;;;;;5077569;28;20024;-87
2023/10/30 05:00:25;;;;;;;1.48;1.00;;;;;;;;;;5077190;28;20032;-88
2023/10/30 05:02:51;;;;;;;1.30;1.20;;;;;;;;;;5070859;28;20032;-88
2023/10/30 05:05:16;;;;;;;2.40;1.48;;;;;;;;;;5057680;28;20081;-87
2023/10/30 05:07:44;;;;;;;1.77;1.63;;;;;;;;;;5078975;28;20481;-87
2023/10/30 05:10:09;;;;;;;1.33;1.23;;;;;;;;;;5069465;28;20048;-87
2023/10/30 05:12:35;;;;;;;2.25;1.60;;;;;;;;;;5067847;28;20494;-86
2023/10/30 05:15:00;;;;;;;1.55;1.45;;;;;;;;;;5070819;28;20029;-87
2023/10/30 05:17:26;;;;;;;1.50;1.40;;;;;;;;;;5065293;28;20548;-88
2023/10/30 05:19:51;;;;;;;1.50;1.40;;;;;;;;;;5063042;28;20039;-86
2023/10/30 05:22:17;;;;;;;1.92;1.50;;;;;;;;;;5073876;28;20471;-86
2023/10/30 05:24:42;;;;;;;2.90;1.55;;;;;;;;;;5065506;28;20020;-86
2023/10/30 05:27:07;;;;;;;1.40;1.30;;;;;;;;;;5050182;28;20040;-86
2023/10/30 05:29:33;;;;;;;1.42;1.33;;;;;;;;;;5077905;28;20035;-87
2023/10/30 05:32:02;;;;;;;5.30;1.70;;;;;;;;;;5077366;28;20039;-86
2023/10/30 05:34:30;;;;;;;1.65;1.33;;;;;;;;;;5069792;28;20063;-86
2023/10/30 05:36:56;;;;;;;1.90;1.52;;;;;;;;;;5087963;28;20092;-86
2023/10/30 05:39:21;;;;;;;2.15;1.70;;;;;;;;;;5074711;28;20020;-87
2023/10/30 05:41:47;;;;;;;1.83;1.65;;;;;;;;;;5061699;28;20588;-86
2023/10/30 05:44:12;;;;;;;1.48;1.38;;;;;;;;;;5072222;28;20036;-86
2023/10/30 05:46:37;;;;;;;2.25;1.85;;;;;;;;;;5070358;28;20032;-87
2023/10/30 05:49:03;;;;;;;1.63;1.50;;;;;;;;;;5061397;28;20040;-86
2023/10/30 05:51:28;;;;;;;1.50;1.40;;;;;;;;;;5066957;28;20037;-87
2023/10/30 05:53:53;;;;;;;1.80;1.70;;;;;;;;;;5066608;28;20032;-88
2023/10/30 05:56:19;;;;;;;2.83;2.10;;;;;;;;;;5061445;28;20025;-86
2023/10/30 05:58:44;;;;;;;3.28;2.17;;;;;;;;;;5073712;28;20025;-87
2023/10/30 06:01:09;;;;;;;2.92;2.33;;;;;;;;;;5052732;28;20017;-86
2023/10/30 06:03:35;;;;;;;3.58;2.03;;;;;;;;;;5047079;28;20039;-86
2023/10/30 06:06:00;;;;;;;2.22;1.95;;;;;;;;;;5064681;28;20055;-85
2023/10/30 06:08:25;;;;;;;1.50;1.40;;;;;;;;;;5062474;28;20224;-85
2023/10/30 06:10:51;;;;;;;2.28;1.63;;;;;;;;;;5074807;28;20028;-86
2023/10/30 06:13:16;;;;;;;4.35;2.00;;;;;;;;;;5066674;28;20028;-86
2023/10/30 06:15:41;;;;;;;1.90;1.70;;;;;;;;;;5067185;28;20035;-87
2023/10/30 06:18:07;;;;;;;3.38;1.45;;;;;;;;;;5059520;28;20033;-86
2023/10/30 06:20:33;;;;;;;2.33;1.73;;;;;;;;;;5064773;28;20025;-85
2023/10/30 06:22:59;;;;;;;1.40;1.30;;;;;;;;;;5067727;28;20024;-87
2023/10/30 06:25:24;;;;;;;1.63;1.52;;;;;;;;;;5068165;28;20390;-86
2023/10/30 06:27:50;;;;;;;4.70;1.50;;;;;;;;;;5068175;28;20052;-84
2023/10/30 06:30:17;;;;;;;1.77;1.60;;;;;;;;;;5071584;28;20067;-83
2023/10/30 06:32:43;;;;;;;1.73;1.60;;;;;;;;;;5068823;28;20032;-83
2023/10/30 06:35:09;;;;;;;5.25;2.35;;;;;;;;;;5072557;28;20531;-83
2023/10/30 06:37:35;;;;;;;2.28;2.08;;;;;;;;;;5068049;28;20036;-84
2023/10/30 06:40:00;;;;;;;3.15;2.30;;;;;;;;;;5075698;28;20020;-84
2023/10/30 06:42:25;;;;;;;4.38;2.40;;;;;;;;;;5070868;28;20055;-84
2023/10/30 06:44:51;;;;;;;3.80;2.65;;;;;;;;;;5067957;28;20040;-84
2023/10/30 06:47:18;;;;;;;4.47;2.28;;;;;;;;;;5077703;28;20032;-84
2023/10/30 06:49:43;;;;;;;3.67;2.20;;;;;;;;;;5062308;28;20505;-84
2023/10/30 06:52:08;;;;;;;2.70;2.05;;;;;;;;;;5079924;28;20035;-84
2023/10/30 06:54:34;;;;;;;3.58;1.83;;;;;;;;;;5074707;28;20028;-84
2023/10/30 06:56:59;;;;;;;2.08;1.80;;;;;;;;;;5078357;28;20028;-83
2023/10/30 06:59:24;;;;;;;3.28;2.00;;;;;;;;;;5076610;28;20096;-84
2023/10/30 07:01:50;;;;;;;3.15;1.90;;;;;;;;;;5075587;28;20114;-86
2023/10/30 07:04:16;;;;;;;4.07;2.00;;;;;;;;;;5073417;28;20025;-84
2023/10/30 07:06:43;;;;;;;3.50;2.22;;;;;;;;;;5074621;28;20397;-84
2023/10/30 07:09:09;;;;;;;3.20;1.90;;;;;;;;;;5056642;28;20032;-86
2023/10/30 07:11:39;;;;;;;2.63;2.05;;;;;;;;;;5072826;28;20028;-84
2023/10/30 07:14:05;;;;;;;6.07;2.05;;;;;;;;;;5077521;28;20505;-87
2023/10/30 07:16:31;;;;;;;3.08;2.03;;;;;;;;;;5065555;28;20029;-86
2023/10/30 07:18:57;;;;;;;3.75;2.17;;;;;;;;;;5062336;28;20040;-87
2023/10/30 07:21:23;;;;;;;4.53;2.28;;;;;;;;;;5067841;28;20024;-86
2023/10/30 07:23:49;;;;;;;2.33;1.90;;;;;;;;;;5070614;28;20049;-87
2023/10/30 07:26:15;;;;;;;4.03;1.80;;;;;;;;;;5067454;28;20025;-86
2023/10/30 07:28:40;;;;;;;2.75;2.10;;;;;;;;;;5068469;28;20031;-86
2023/10/30 07:31:06;;;;;;;1.67;1.58;;;;;;;;;;5070094;28;20033;-87
2023/10/30 07:33:31;;;;;;;7.35;2.47;;;;;;;;;;5078370;28;20024;-86
2023/10/30 07:36:00;;;;;;;4.95;2.00;;;;;;;;;;5073024;28;20024;-87
2023/10/30 07:38:29;;;;;;;2.92;2.33;;;;;;;;;;5043786;28;20113;-86
2023/10/30 07:40:54;;;;;;;3.22;2.05;;;;;;;;;;5067309;28;20021;-87
2023/10/30 07:43:21;;;;;;;3.00;2.10;;;;;;;;;;5077918;28;20024;-87
2023/10/30 07:45:47;;;;;;;2.17;1.98;;;;;;;;;;5067841;28;20478;-87
2023/10/30 07:48:12;;;;;;;2.90;2.17;;;;;;;;;;5066251;28;20035;-87
2023/10/30 07:50:38;;;;;;;4.28;2.13;;;;;;;;;;5060151;28;20052;-88
2023/10/30 07:53:03;;;;;;;2.60;2.03;;;;;;;;;;5078810;28;20100;-87
2023/10/30 07:55:28;;;;;;;2.50;2.15;;;;;;;;;;5070502;28;20436;-87
2023/10/30 07:57:54;;;;;;;2.75;2.13;;;;;;;;;;5057485;28;20024;-88
2023/10/30 08:00:19;;;;;;;2.85;1.90;;;;;;;;;;5069657;28;20035;-87
2023/10/30 08:02:46;;;;;;;2.75;1.85;;;;;;;;;;5060536;28;20024;-86
2023/10/30 08:05:15;;;;;;;3.97;2.13;;;;;;;;;;5079281;28;20025;-86
2023/10/30 08:07:47;;;;;;;2.83;1.70;;;;;;;;;;5081090;28;20052;-87
2023/10/30 08:10:12;;;;;;;3.42;2.17;;;;;;;;;;5073033;28;20029;-86
2023/10/30 08:12:39;;;;;;;3.65;2.15;;;;;;;;;;5053618;28;20170;-87
2023/10/30 08:15:05;;;;;;;6.97;2.20;;;;;;;;;;5072305;28;20020;-86
2023/10/30 08:17:31;;;;;;;5.25;3.10;;;;;;;;;;5064533;28;20027;-87
2023/10/30 08:19:56;;;;;;;3.97;2.83;;;;;;;;;;5076672;28;20025;-88
2023/10/30 08:22:22;;;;;;;4.00;2.50;;;;;;;;;;5075723;28;20044;-85
2023/10/30 08:24:47;;;;;;;3.03;2.20;;;;;;;;;;5081190;28;20116;-87
2023/10/30 08:27:12;;;;;;;3.10;2.30;;;;;;;;;;5078814;28;20029;-87
2023/10/30 08:29:38;;;;;;;2.42;2.17;;;;;;;;;;5078875;28;20087;-86
2023/10/30 08:32:03;;;;;;;3.33;2.17;;;;;;;;;;5079040;28;20056;-87
2023/10/30 08:34:29;;;;;;;3.00;1.88;;;;;;;;;;5087918;28;20031;-87
2023/10/30 08:36:54;;;;;;;5.07;2.20;;;;;;;;;;5088250;28;20421;-87
2023/10/30 08:39:19;;;;;;;5.82;1.85;;;;;;;;;;5086925;28;20032;-87
2023/10/30 08:41:46;;;;;;;6.97;1.98;;;;;;;;;;5073437;28;20070;-87
2023/10/30 08:44:11;;;;;;;3.85;2.00;;;;;;;;;;5090021;28;20024;-87
2023/10/30 08:46:36;;;;;;;2.78;1.70;;;;;;;;;;5090634;28;20055;-87
2023/10/30 08:49:02;;;;;;;2.20;1.85;;;;;;;;;;5089514;28;20042;-87
2023/10/30 08:51:27;;;;;;;2.75;1.75;;;;;;;;;;5089752;28;20123;-86
2023/10/30 08:53:53;;;;;;;2.13;1.58;;;;;;;;;;5069056;28;20029;-88
2023/10/30 08:56:19;;;;;;;2.42;2.00;;;;;;;;;;5085995;28;20158;-87
2023/10/30 08:58:45;;;;;;;2.92;1.80;;;;;;;;;;5074866;28;20024;-89
2023/10/30 09:01:10;;;;;;;2.85;1.67;;;;;;;;;;5091743;28;20432;-89
2023/10/30 09:03:35;;;;;;;2.47;1.70;;;;;;;;;;5087560;28;20084;-89
2023/10/30 09:06:01;;;;;;;3.10;1.88;;;;;;;;;;5082685;28;20024;-89
2023/10/30 09:08:26;;;;;;;2.70;1.85;;;;;;;;;;5070279;28;20025;-88
2023/10/30 09:10:51;;;;;;;1.75;1.60;;;;;;;;;;5061611;28;20032;-88
2023/10/30 09:13:17;;;;;;;2.03;1.80;;;;;;;;;;5043434;28;20402;-87
2023/10/30 09:15:43;;;;;;;2.70;1.60;;;;;;;;;;5075172;28;20103;-86
2023/10/30 09:18:08;;;;;;;3.13;1.75;;;;;;;;;;5062165;28;20048;-87
2023/10/30 09:20:34;;;;;;;2.45;1.92;;;;;;;;;;5070529;28;20032;-87
2023/10/30 09:23:00;;;;;;;1.95;1.85;;;;;;;;;;5064190;28;20025;-87
2023/10/30 09:25:25;;;;;;;2.83;1.45;;;;;;;;;;5054786;28;20062;-87
2023/10/30 09:27:50;;;;;;;1.88;1.77;;;;;;;;;;5075075;28;20025;-88
2023/10/30 09:30:17;;;;;;;2.50;1.80;;;;;;;;;;5057166;28;20025;-87
2023/10/30 09:32:42;;;;;;;2.33;1.77;;;;;;;;;;5074761;28;20017;-88
2023/10/30 09:35:08;;;;;;;2.42;1.45;;;;;;;;;;5049820;28;20031;-88
2023/10/30 09:37:34;;;;;;;3.58;1.63;;;;;;;;;;5060757;28;20028;-86
2023/10/30 09:40:00;;;;;;;2.63;1.95;;;;;;;;;;5069139;28;20032;-87
2023/10/30 09:42:25;;;;;;;3.13;2.15;;;;;;;;;;5078598;28;20028;-88
2023/10/30 09:44:51;;;;;;;2.75;2.20;;;;;;;;;;5072786;28;20029;-88
2023/10/30 09:47:18;;;;;;;3.10;2.17;;;;;;;;;;5059706;28;20032;-87
2023/10/30 09:49:47;;;;;;;7.95;2.15;;;;;;;;;;5062080;28;20021;-87
2023/10/30 09:52:13;;;;;;;12.15;2.15;;;;;;;;;;5079036;28;20028;-87
2023/10/30 09:54:39;;;;;;;1.73;1.63;;;;;;;;;;5072950;28;20028;-87
2023/10/30 09:57:05;;;;;;;2.92;2.00;;;;;;;;;;5068302;28;20532;-88
2023/10/30 09:59:32;;;;;;;6.15;1.83;;;;;;;;;;5070600;28;20054;-87
2023/10/30 10:01:59;;;;;;;4.32;2.00;;;;;;;;;;5060811;28;20031;-85
2023/10/30 10:04:24;;;;;;;3.60;1.90;;;;;;;;;;5078548;28;20121;-86
2023/10/30 10:06:51;;;;;;;3.83;2.10;;;;;;;;;;5077984;28;20052;-88
2023/10/30 10:09:16;;;;;;;2.13;1.80;;;;;;;;;;5069982;28;20028;-88
2023/10/30 10:11:43;;;;;;;4.85;1.80;;;;;;;;;;5055260;28;20422;-87
2023/10/30 10:14:08;;;;;;;3.85;2.10;;;;;;;;;;5058494;28;20033;-87
2023/10/30 10:16:37;;;;;;;1.75;1.60;;;;;;;;;;5070455;28;20020;-87
2023/10/30 10:19:33;;;;;;;2.25;1.67;;;;;;;;;;5069971;28;20064;-86
2023/10/30 10:21:59;;;;;;;3.85;2.00;;;;;;;;;;5070716;28;20032;-87
2023/10/30 10:24:28;;;;;;;3.17;1.92;;;;;;;;;;5064270;28;20087;-87
2023/10/30 10:26:56;;;;;;;3.90;2.17;;;;;;;;;;5065681;28;20442;-87
2023/10/30 10:29:23;;;;;;;1.45;1.33;;;;;;;;;;5066872;28;20052;-87
2023/10/30 10:31:48;;;;;;;1.83;1.48;;;;;;;;;;5085326;28;20074;-87
2023/10/30 10:34:14;;;;;;;3.15;1.75;;;;;;;;;;5061647;28;20077;-86
2023/10/30 10:36:40;;;;;;;3.47;2.08;;;;;;;;;;5057151;28;20389;-87
2023/10/30 10:39:06;;;;;;;2.88;1.80;;;;;;;;;;5071102;28;20482;-88
2023/10/30 10:41:31;;;;;;;1.88;1.40;;;;;;;;;;5071381;28;20403;-87
2023/10/30 10:43:59;;;;;;;1.50;1.40;;;;;;;;;;5059091;28;20086;-87
2023/10/30 10:46:24;;;;;;;1.33;1.23;;;;;;;;;;5078256;28;20079;-87
2023/10/30 10:48:50;;;;;;;2.08;1.73;;;;;;;;;;5070072;28;20103;-86
2023/10/30 10:51:25;;;;;;;1.45;1.35;;;;;;;;;;5070247;28;20021;-87
2023/10/30 10:53:52;;;;;;;1.35;1.05;;;;;;;;;;5063812;28;20078;-87
2023/10/30 10:56:19;;;;;;;1.25;1.17;;;;;;;;;;5081356;28;20027;-87
2023/10/30 10:58:56;;;;;;;1.33;1.23;;;;;;;;;;5068905;28;20025;-87
2023/10/30 11:01:23;;;;;;;1.83;1.48;;;;;;;;;;5080884;28;20033;-88
2023/10/30 11:03:49;;;;;;;4.05;1.17;;;;;;;;;;5066112;28;20008;-87
2023/10/30 11:06:15;;;;;;;1.25;1.00;;;;;;;;;;5078817;28;20013;-88
2023/10/30 11:09:18;;;;;;;1.98;1.23;;;;;;;;;;5046868;28;20036;-88
2023/10/30 11:12:12;;;;;;;1.33;1.00;;;;;;;;;;5070638;28;20502;-87
2023/10/30 11:15:03;;;;;;;0.82;0.80;;;;;;;;;;5080706;28;20024;-88
2023/10/30 11:17:29;;;;;;;2.05;1.00;;;;;;;;;;5064135;28;20044;-86
2023/10/30 11:20:07;;;;;;;0.98;0.82;;;;;;;;;;5079765;28;20036;-86
2023/10/30 11:22:40;;;;;;;1.20;0.90;;;;;;;;;;5068220;28;20024;-86
2023/10/30 11:25:26;;;;;;;0.85;0.82;;;;;;;;;;5074770;28;20028;-87
2023/10/30 11:27:52;;;;;;;0.57;0.50;;;;;;;;;;5065604;28;20028;-86
2023/10/30 11:30:22;;;;;;;0.75;0.38;;;;;;;;;;5066153;28;20020;-90
2023/10/30 11:32:47;;;;;;;4.22;0.90;;;;;;;;;;5091038;28;20013;-87
2023/10/30 11:35:13;;;;;;;0.80;0.68;;;;;;;;;;5076961;28;20061;-87
2023/10/30 11:37:40;;;;;;;0.40;0.40;;;;;;;;;;5068719;28;20108;-87
2023/10/30 11:40:07;;;;;;;0.40;0.40;;;;;;;;;;5075598;28;20142;-86
2023/10/30 11:42:39;;;;;;;0.95;0.93;;;;;;;;;;5066328;28;20171;-86
2023/10/30 11:45:18;;;;;;;0.88;0.57;;;;;;;;;;5071888;28;20089;-87
2023/10/30 11:47:46;;;;;;;0.70;0.70;;;;;;;;;;5066755;28;20051;-86
2023/10/30 11:50:12;;;;;;;2.65;0.73;;;;;;;;;;5047742;28;20028;-87
2023/10/30 11:52:38;;;;;;;0.80;0.80;;;;;;;;;;5072814;28;20032;-89
2023/10/30 11:55:07;;;;;;;2.80;0.65;;;;;;;;;;5076830;28;20047;-89
2023/10/30 11:57:34;;;;;;;0.55;0.52;;;;;;;;;;5041085;28;20021;-87
2023/10/30 12:00:02;;;;;;;0.32;0.32;;;;;;;;;;5058048;28;20025;-88
2023/10/30 12:02:28;;;;;;;0.60;0.60;;;;;;;;;;5055975;28;20021;-88
2023/10/30 12:05:04;;;;;;;1.00;0.77;;;;;;;;;;5071286;28;20021;-88
2023/10/30 12:07:29;;;;;;;1.38;0.90;;;;;;;;;;5077816;28;20111;-88
2023/10/30 12:09:55;;;;;;;0.55;0.50;;;;;;;;;;5073960;28;20067;-88
2023/10/30 12:12:20;;;;;;;0.80;0.80;;;;;;;;;;5077493;28;20021;-87
2023/10/30 12:14:45;;;;;;;0.63;0.63;;;;;;;;;;5058159;28;20577;-88
2023/10/30 12:17:11;;;;;;;0.60;0.60;;;;;;;;;;5072820;28;20029;-87
2023/10/30 12:19:37;;;;;;;0.73;0.73;;;;;;;;;;5067547;28;20056;-88
2023/10/30 12:22:02;;;;;;;0.35;0.35;;;;;;;;;;5070258;28;20042;-88
2023/10/30 12:24:28;;;;;;;3.90;0.98;;;;;;;;;;5050112;28;20016;-87
2023/10/30 12:26:53;;;;;;;5.88;0.50;;;;;;;;;;5047596;28;20032;-87
2023/10/30 12:29:22;;;;;;;1.13;0.73;;;;;;;;;;5053816;28;20028;-88
2023/10/30 12:32:03;;;;;;;1.20;0.50;;;;;;;;;;5037458;28;20025;-87
2023/10/30 12:34:30;;;;;;;2.80;0.60;;;;;;;;;;5047697;28;20020;-87
2023/10/30 12:36:56;;;;;;;1.02;0.65;;;;;;;;;;5053339;28;20023;-86
2023/10/30 12:39:21;;;;;;;1.35;0.93;;;;;;;;;;5039178;28;20053;-86
2023/10/30 12:41:51;;;;;;;1.80;1.23;;;;;;;;;;5073162;28;20031;-87
2023/10/30 12:44:18;;;;;;;0.93;0.90;;;;;;;;;;5069219;28;20540;-87
2023/10/30 12:46:44;;;;;;;0.88;0.80;;;;;;;;;;5067991;28;20028;-88
2023/10/30 12:49:09;;;;;;;0.82;0.82;;;;;;;;;;5057947;28;20028;-87
2023/10/30 12:51:35;;;;;;;1.05;0.93;;;;;;;;;;5074954;28;20021;-87
2023/10/30 12:54:01;;;;;;;1.38;0.95;;;;;;;;;;5066921;28;20024;-87
2023/10/30 12:56:26;;;;;;;0.85;0.70;;;;;;;;;;5072255;28;20039;-87
2023/10/30 12:58:51;;;;;;;2.35;0.93;;;;;;;;;;5066099;28;20008;-87
2023/10/30 13:01:17;;;;;;;0.88;0.80;;;;;;;;;;5075434;28;20024;-86
2023/10/30 13:03:43;;;;;;;0.63;0.63;;;;;;;;;;5065190;28;20470;-86
2023/10/30 13:06:08;;;;;;;0.70;0.63;;;;;;;;;;5071354;28;20104;-86
2023/10/30 13:08:33;;;;;;;0.80;0.80;;;;;;;;;;5061351;28;20032;-86
2023/10/30 13:10:59;;;;;;;1.10;0.95;;;;;;;;;;5071301;28;20035;-86
2023/10/30 13:13:24;;;;;;;1.17;1.00;;;;;;;;;;5043688;28;20033;-86
2023/10/30 13:15:49;;;;;;;0.90;0.90;;;;;;;;;;5069531;28;20020;-86
2023/10/30 13:18:15;;;;;;;2.00;0.80;;;;;;;;;;5067825;28;20039;-87
2023/10/30 13:20:40;;;;;;;1.27;0.98;;;;;;;;;;5069380;28;20029;-86
2023/10/30 13:23:05;;;;;;;2.63;1.02;;;;;;;;;;5072432;28;20029;-87
2023/10/30 13:25:31;;;;;;;1.27;0.90;;;;;;;;;;5063914;28;20033;-86
2023/10/30 13:27:57;;;;;;;1.45;1.00;;;;;;;;;;5074902;28;20116;-87
2023/10/30 13:30:23;;;;;;;1.35;0.90;;;;;;;;;;5075622;28;20551;-87
2023/10/30 13:32:48;;;;;;;1.88;1.20;;;;;;;;;;5049497;28;20013;-86
2023/10/30 13:35:14;;;;;;;2.30;1.10;;;;;;;;;;5067719;28;20021;-86
2023/10/30 13:37:39;;;;;;;1.73;1.17;;;;;;;;;;5077297;28;20059;-86
2023/10/30 13:40:06;;;;;;;2.08;0.98;;;;;;;;;;5078093;28;20036;-86
2023/10/30 13:42:31;;;;;;;1.88;1.15;;;;;;;;;;5066832;28;20036;-86
2023/10/30 13:44:57;;;;;;;2.10;1.13;;;;;;;;;;5078766;28;20020;-87
2023/10/30 13:47:22;;;;;;;3.10;1.23;;;;;;;;;;5070197;28;20017;-87
2023/10/30 13:49:48;;;;;;;3.35;1.80;;;;;;;;;;5055169;28;20033;-87
2023/10/30 13:52:13;;;;;;;1.90;1.30;;;;;;;;;;5078165;28;20473;-88
2023/10/30 13:54:39;;;;;;;1.70;1.60;;;;;;;;;;5071920;28;20021;-87
2023/10/30 13:57:05;;;;;;;1.33;1.10;;;;;;;;;;5064093;28;20025;-86
2023/10/30 13:59:30;;;;;;;1.23;0.82;;;;;;;;;;5066624;28;20032;-87
2023/10/30 14:01:55;;;;;;;3.83;1.08;;;;;;;;;;5049506;28;20027;-87
2023/10/30 14:04:21;;;;;;;1.85;1.00;;;;;;;;;;5071240;28;20021;-87
2023/10/30 14:06:46;;;;;;;1.58;1.10;;;;;;;;;;5061381;28;20025;-86
2023/10/30 14:09:12;;;;;;;3.00;1.77;;;;;;;;;;5068801;28;20025;-86
2023/10/30 14:11:38;;;;;;;0.88;0.88;;;;;;;;;;5061200;28;20113;-87
2023/10/30 14:14:03;;;;;;;1.10;1.00;;;;;;;;;;5077377;28;20086;-86
2023/10/30 14:16:29;;;;;;;0.90;0.90;;;;;;;;;;5074888;28;20386;-88
2023/10/30 14:18:54;;;;;;;2.15;1.00;;;;;;;;;;5067180;28;20021;-86
2023/10/30 14:21:22;;;;;;;1.55;1.00;;;;;;;;;;5062414;28;20024;-86
2023/10/30 14:23:47;;;;;;;0.73;0.73;;;;;;;;;;5068271;28;22607;-86
2023/10/30 14:26:12;;;;;;;1.75;1.10;;;;;;;;;;5057395;28;20024;-87
2023/10/30 14:28:38;;;;;;;1.45;0.70;;;;;;;;;;5062562;28;20033;-87
2023/10/30 14:31:03;;;;;;;1.70;1.13;;;;;;;;;;5071055;28;20482;-87
2023/10/30 14:33:29;;;;;;;0.77;0.73;;;;;;;;;;5078929;28;20031;-86
2023/10/30 14:35:54;;;;;;;0.70;0.70;;;;;;;;;;5065910;28;20096;-86
2023/10/30 14:38:19;;;;;;;1.08;1.02;;;;;;;;;;5063460;28;20554;-87